sensor_id;sensor_type;location;lat;lon;timestamp;P1;durP1;ratioP1;P2;durP2;ratioP2
1414;SDS011;702;49.466;11.086;2023-07-29T00:00:58;3.57;;;3.00;;
1414;SDS011;702;49.466;11.086;2023-07-29T00:03:26;5.33;;;3.57;;
1414;SDS011;702;49.466;11.086;2023-07-29T00:05:55;3.80;;;3.50;;
1414;SDS011;702;49.466;11.086;2023-07-29T00:08:22;3.17;;;2.97;;
1414;SDS011;702;49.466;11.086;2023-07-29T00:10:49;3.77;;;3.47;;
1414;SDS011;702;49.466;11.086;2023-07-29T00:13:19;3.60;;;3.30;;
1414;SDS011;702;49.466;11.086;2023-07-29T00:15:47;4.10;;;3.20;;
1414;SDS011;702;49.466;11.086;2023-07-29T00:18:14;3.80;;;3.50;;
1414;SDS011;702;49.466;11.086;2023-07-29T00:20:41;3.27;;;2.97;;
1414;SDS011;702;49.466;11.086;2023-07-29T00:23:09;2.90;;;2.70;;
1414;SDS011;702;49.466;11.086;2023-07-29T00:25:36;2.47;;;2.27;;
1414;SDS011;702;49.466;11.086;2023-07-29T00:28:03;2.77;;;2.57;;
1414;SDS011;702;49.466;11.086;2023-07-29T00:30:32;3.73;;;2.63;;
1414;SDS011;702;49.466;11.086;2023-07-29T00:33:00;4.47;;;3.30;;
1414;SDS011;702;49.466;11.086;2023-07-29T00:35:28;2.83;;;2.63;;
1414;SDS011;702;49.466;11.086;2023-07-29T00:37:55;3.10;;;2.80;;
1414;SDS011;702;49.466;11.086;2023-07-29T00:40:22;2.93;;;2.63;;
1414;SDS011;702;49.466;11.086;2023-07-29T00:42:50;2.53;;;2.33;;
1414;SDS011;702;49.466;11.086;2023-07-29T00:45:17;2.83;;;2.63;;
1414;SDS011;702;49.466;11.086;2023-07-29T00:47:46;3.53;;;2.57;;
1414;SDS011;702;49.466;11.086;2023-07-29T00:50:14;6.73;;;2.53;;
1414;SDS011;702;49.466;11.086;2023-07-29T00:52:42;3.23;;;2.97;;
1414;SDS011;702;49.466;11.086;2023-07-29T00:55:09;3.73;;;2.70;;
1414;SDS011;702;49.466;11.086;2023-07-29T00:57:36;2.90;;;2.70;;
1414;SDS011;702;49.466;11.086;2023-07-29T01:00:07;2.90;;;2.70;;
1414;SDS011;702;49.466;11.086;2023-07-29T01:02:36;3.00;;;2.80;;
1414;SDS011;702;49.466;11.086;2023-07-29T01:05:05;2.93;;;2.73;;
1414;SDS011;702;49.466;11.086;2023-07-29T01:07:36;3.77;;;3.47;;
1414;SDS011;702;49.466;11.086;2023-07-29T01:10:15;3.57;;;3.27;;
1414;SDS011;702;49.466;11.086;2023-07-29T01:12:58;4.73;;;3.57;;
1414;SDS011;702;49.466;11.086;2023-07-29T01:15:33;5.20;;;3.10;;
1414;SDS011;702;49.466;11.086;2023-07-29T01:18:10;5.37;;;4.50;;
1414;SDS011;702;49.466;11.086;2023-07-29T01:20:47;4.53;;;3.87;;
1414;SDS011;702;49.466;11.086;2023-07-29T01:23:23;4.63;;;4.20;;
1414;SDS011;702;49.466;11.086;2023-07-29T01:25:50;5.10;;;4.60;;
1414;SDS011;702;49.466;11.086;2023-07-29T01:28:18;4.50;;;4.10;;
1414;SDS011;702;49.466;11.086;2023-07-29T01:30:45;4.40;;;4.10;;
1414;SDS011;702;49.466;11.086;2023-07-29T01:33:20;4.10;;;3.77;;
1414;SDS011;702;49.466;11.086;2023-07-29T01:35:54;3.93;;;3.63;;
1414;SDS011;702;49.466;11.086;2023-07-29T01:38:32;4.20;;;3.80;;
1414;SDS011;702;49.466;11.086;2023-07-29T01:41:02;5.37;;;4.77;;
1414;SDS011;702;49.466;11.086;2023-07-29T01:43:32;3.73;;;3.43;;
1414;SDS011;702;49.466;11.086;2023-07-29T01:46:04;4.93;;;3.90;;
1414;SDS011;702;49.466;11.086;2023-07-29T01:48:32;3.87;;;3.43;;
1414;SDS011;702;49.466;11.086;2023-07-29T01:50:59;3.77;;;3.47;;
1414;SDS011;702;49.466;11.086;2023-07-29T01:53:26;4.10;;;3.70;;
1414;SDS011;702;49.466;11.086;2023-07-29T01:55:55;4.40;;;4.00;;
1414;SDS011;702;49.466;11.086;2023-07-29T01:58:23;3.00;;;2.70;;
1414;SDS011;702;49.466;11.086;2023-07-29T02:00:50;4.20;;;3.50;;
1414;SDS011;702;49.466;11.086;2023-07-29T02:03:18;3.60;;;3.30;;
1414;SDS011;702;49.466;11.086;2023-07-29T02:05:45;3.47;;;3.17;;
1414;SDS011;702;49.466;11.086;2023-07-29T02:08:12;4.60;;;3.13;;
1414;SDS011;702;49.466;11.086;2023-07-29T02:10:39;3.47;;;3.17;;
1414;SDS011;702;49.466;11.086;2023-07-29T02:13:11;5.53;;;3.77;;
1414;SDS011;702;49.466;11.086;2023-07-29T02:15:39;5.80;;;4.43;;
1414;SDS011;702;49.466;11.086;2023-07-29T02:18:06;3.07;;;2.87;;
1414;SDS011;702;49.466;11.086;2023-07-29T02:20:33;6.10;;;3.90;;
1414;SDS011;702;49.466;11.086;2023-07-29T02:23:00;3.03;;;2.77;;
1414;SDS011;702;49.466;11.086;2023-07-29T02:25:28;5.33;;;4.83;;
1414;SDS011;702;49.466;11.086;2023-07-29T02:27:55;4.50;;;4.10;;
1414;SDS011;702;49.466;11.086;2023-07-29T02:30:24;3.90;;;3.60;;
1414;SDS011;702;49.466;11.086;2023-07-29T02:32:51;4.73;;;4.33;;
1414;SDS011;702;49.466;11.086;2023-07-29T02:35:18;5.60;;;5.10;;
1414;SDS011;702;49.466;11.086;2023-07-29T02:37:45;4.93;;;4.53;;
1414;SDS011;702;49.466;11.086;2023-07-29T02:40:12;4.60;;;4.07;;
1414;SDS011;702;49.466;11.086;2023-07-29T02:42:40;4.20;;;3.90;;
1414;SDS011;702;49.466;11.086;2023-07-29T02:45:07;4.30;;;4.00;;
1414;SDS011;702;49.466;11.086;2023-07-29T02:47:38;4.63;;;4.23;;
1414;SDS011;702;49.466;11.086;2023-07-29T02:50:05;4.93;;;4.53;;
1414;SDS011;702;49.466;11.086;2023-07-29T02:52:33;4.40;;;4.00;;
1414;SDS011;702;49.466;11.086;2023-07-29T02:55:01;5.03;;;4.63;;
1414;SDS011;702;49.466;11.086;2023-07-29T02:57:28;4.80;;;4.30;;
1414;SDS011;702;49.466;11.086;2023-07-29T02:59:55;5.30;;;4.80;;
1414;SDS011;702;49.466;11.086;2023-07-29T03:02:22;3.70;;;3.40;;
1414;SDS011;702;49.466;11.086;2023-07-29T03:04:51;4.13;;;3.70;;
1414;SDS011;702;49.466;11.086;2023-07-29T03:07:18;4.27;;;3.80;;
1414;SDS011;702;49.466;11.086;2023-07-29T03:09:45;5.10;;;4.70;;
1414;SDS011;702;49.466;11.086;2023-07-29T03:12:12;3.50;;;3.07;;
1414;SDS011;702;49.466;11.086;2023-07-29T03:14:40;4.63;;;3.90;;
1414;SDS011;702;49.466;11.086;2023-07-29T03:17:07;3.70;;;3.40;;
1414;SDS011;702;49.466;11.086;2023-07-29T03:19:34;3.57;;;3.27;;
1414;SDS011;702;49.466;11.086;2023-07-29T03:22:03;3.60;;;3.30;;
1414;SDS011;702;49.466;11.086;2023-07-29T03:24:30;3.43;;;3.13;;
1414;SDS011;702;49.466;11.086;2023-07-29T03:26:58;3.87;;;3.57;;
1414;SDS011;702;49.466;11.086;2023-07-29T03:29:25;3.93;;;3.53;;
1414;SDS011;702;49.466;11.086;2023-07-29T03:31:52;4.93;;;4.50;;
1414;SDS011;702;49.466;11.086;2023-07-29T03:34:20;3.30;;;3.00;;
1414;SDS011;702;49.466;11.086;2023-07-29T03:36:47;3.53;;;3.30;;
1414;SDS011;702;49.466;11.086;2023-07-29T03:39:17;2.90;;;2.70;;
1414;SDS011;702;49.466;11.086;2023-07-29T03:41:44;6.13;;;3.57;;
1414;SDS011;702;49.466;11.086;2023-07-29T03:44:11;3.80;;;3.50;;
1414;SDS011;702;49.466;11.086;2023-07-29T03:46:39;3.80;;;3.50;;
1414;SDS011;702;49.466;11.086;2023-07-29T03:49:06;3.60;;;3.30;;
1414;SDS011;702;49.466;11.086;2023-07-29T03:51:33;3.30;;;3.10;;
1414;SDS011;702;49.466;11.086;2023-07-29T03:54:00;3.90;;;3.60;;
1414;SDS011;702;49.466;11.086;2023-07-29T03:56:29;3.10;;;2.90;;
1414;SDS011;702;49.466;11.086;2023-07-29T03:59:01;3.60;;;3.30;;
1414;SDS011;702;49.466;11.086;2023-07-29T04:01:29;4.70;;;3.60;;
1414;SDS011;702;49.466;11.086;2023-07-29T04:03:57;4.30;;;3.30;;
1414;SDS011;702;49.466;11.086;2023-07-29T04:06:24;3.60;;;3.00;;
1414;SDS011;702;49.466;11.086;2023-07-29T04:08:53;4.40;;;4.00;;
1414;SDS011;702;49.466;11.086;2023-07-29T04:11:20;3.67;;;3.37;;
1414;SDS011;702;49.466;11.086;2023-07-29T04:13:49;3.60;;;3.30;;
1414;SDS011;702;49.466;11.086;2023-07-29T04:16:16;3.37;;;3.17;;
1414;SDS011;702;49.466;11.086;2023-07-29T04:18:43;3.33;;;3.03;;
1414;SDS011;702;49.466;11.086;2023-07-29T04:21:10;3.80;;;3.10;;
1414;SDS011;702;49.466;11.086;2023-07-29T04:23:38;3.80;;;3.40;;
1414;SDS011;702;49.466;11.086;2023-07-29T04:26:05;3.53;;;2.73;;
1414;SDS011;702;49.466;11.086;2023-07-29T04:28:32;3.30;;;3.00;;
1414;SDS011;702;49.466;11.086;2023-07-29T04:31:03;2.67;;;2.50;;
1414;SDS011;702;49.466;11.086;2023-07-29T04:33:30;2.93;;;2.73;;
1414;SDS011;702;49.466;11.086;2023-07-29T04:35:58;3.70;;;2.87;;
1414;SDS011;702;49.466;11.086;2023-07-29T04:38:29;3.10;;;2.80;;
1414;SDS011;702;49.466;11.086;2023-07-29T04:40:58;3.27;;;2.23;;
1414;SDS011;702;49.466;11.086;2023-07-29T04:43:26;3.50;;;2.73;;
1414;SDS011;702;49.466;11.086;2023-07-29T04:45:54;3.70;;;3.07;;
1414;SDS011;702;49.466;11.086;2023-07-29T04:48:22;2.80;;;2.60;;
1414;SDS011;702;49.466;11.086;2023-07-29T04:50:49;7.00;;;2.57;;
1414;SDS011;702;49.466;11.086;2023-07-29T04:53:17;2.80;;;2.57;;
1414;SDS011;702;49.466;11.086;2023-07-29T04:55:44;2.60;;;2.40;;
1414;SDS011;702;49.466;11.086;2023-07-29T04:58:11;2.63;;;2.43;;
1414;SDS011;702;49.466;11.086;2023-07-29T05:00:38;2.27;;;2.10;;
1414;SDS011;702;49.466;11.086;2023-07-29T05:03:05;2.37;;;2.17;;
1414;SDS011;702;49.466;11.086;2023-07-29T05:05:34;2.07;;;1.97;;
1414;SDS011;702;49.466;11.086;2023-07-29T05:08:01;2.60;;;2.27;;
1414;SDS011;702;49.466;11.086;2023-07-29T05:10:29;3.20;;;2.40;;
1414;SDS011;702;49.466;11.086;2023-07-29T05:12:56;3.30;;;2.57;;
1414;SDS011;702;49.466;11.086;2023-07-29T05:15:23;2.70;;;2.33;;
1414;SDS011;702;49.466;11.086;2023-07-29T05:17:50;2.20;;;2.00;;
1414;SDS011;702;49.466;11.086;2023-07-29T05:20:17;4.73;;;2.20;;
1414;SDS011;702;49.466;11.086;2023-07-29T05:22:46;3.50;;;2.40;;
1414;SDS011;702;49.466;11.086;2023-07-29T05:25:13;4.53;;;2.40;;
1414;SDS011;702;49.466;11.086;2023-07-29T05:27:40;2.20;;;2.00;;
1414;SDS011;702;49.466;11.086;2023-07-29T05:30:08;2.47;;;2.27;;
1414;SDS011;702;49.466;11.086;2023-07-29T05:32:36;2.40;;;2.20;;
1414;SDS011;702;49.466;11.086;2023-07-29T05:35:03;1.87;;;1.77;;
1414;SDS011;702;49.466;11.086;2023-07-29T05:37:32;2.10;;;1.90;;
1414;SDS011;702;49.466;11.086;2023-07-29T05:40:01;2.73;;;2.30;;
1414;SDS011;702;49.466;11.086;2023-07-29T05:42:29;2.30;;;2.10;;
1414;SDS011;702;49.466;11.086;2023-07-29T05:44:56;1.90;;;1.80;;
1414;SDS011;702;49.466;11.086;2023-07-29T05:47:23;2.00;;;1.90;;
1414;SDS011;702;49.466;11.086;2023-07-29T05:49:50;2.40;;;2.10;;
1414;SDS011;702;49.466;11.086;2023-07-29T05:52:18;2.03;;;1.93;;
1414;SDS011;702;49.466;11.086;2023-07-29T05:54:45;2.57;;;2.20;;
1414;SDS011;702;49.466;11.086;2023-07-29T05:57:14;2.60;;;2.40;;
1414;SDS011;702;49.466;11.086;2023-07-29T05:59:42;2.53;;;2.30;;
1414;SDS011;702;49.466;11.086;2023-07-29T06:02:09;2.43;;;2.10;;
1414;SDS011;702;49.466;11.086;2023-07-29T06:04:36;2.53;;;1.90;;
1414;SDS011;702;49.466;11.086;2023-07-29T06:07:04;1.87;;;1.53;;
1414;SDS011;702;49.466;11.086;2023-07-29T06:09:31;3.40;;;2.23;;
1414;SDS011;702;49.466;11.086;2023-07-29T06:11:58;1.90;;;1.70;;
1414;SDS011;702;49.466;11.086;2023-07-29T06:14:27;2.97;;;1.80;;
1414;SDS011;702;49.466;11.086;2023-07-29T06:16:54;2.60;;;1.60;;
1414;SDS011;702;49.466;11.086;2023-07-29T06:19:21;2.30;;;2.10;;
1414;SDS011;702;49.466;11.086;2023-07-29T06:21:49;5.03;;;2.20;;
1414;SDS011;702;49.466;11.086;2023-07-29T06:24:16;2.40;;;2.10;;
1414;SDS011;702;49.466;11.086;2023-07-29T06:26:43;3.10;;;1.83;;
1414;SDS011;702;49.466;11.086;2023-07-29T06:29:10;2.20;;;2.00;;
1414;SDS011;702;49.466;11.086;2023-07-29T06:31:39;2.57;;;2.30;;
1414;SDS011;702;49.466;11.086;2023-07-29T06:34:06;2.67;;;2.47;;
1414;SDS011;702;49.466;11.086;2023-07-29T06:36:33;2.57;;;2.37;;
1414;SDS011;702;49.466;11.086;2023-07-29T06:39:00;2.33;;;2.13;;
1414;SDS011;702;49.466;11.086;2023-07-29T06:41:27;3.43;;;2.73;;
1414;SDS011;702;49.466;11.086;2023-07-29T06:43:56;4.13;;;2.53;;
1414;SDS011;702;49.466;11.086;2023-07-29T06:46:23;2.87;;;2.67;;
1414;SDS011;702;49.466;11.086;2023-07-29T06:48:51;4.87;;;3.53;;
1414;SDS011;702;49.466;11.086;2023-07-29T06:51:18;5.53;;;3.90;;
1414;SDS011;702;49.466;11.086;2023-07-29T06:53:46;3.83;;;3.50;;
1414;SDS011;702;49.466;11.086;2023-07-29T06:56:13;3.10;;;2.70;;
1414;SDS011;702;49.466;11.086;2023-07-29T06:58:40;2.50;;;2.30;;
1414;SDS011;702;49.466;11.086;2023-07-29T07:01:07;4.77;;;3.00;;
1414;SDS011;702;49.466;11.086;2023-07-29T07:03:36;2.30;;;2.10;;
1414;SDS011;702;49.466;11.086;2023-07-29T07:06:05;2.90;;;2.67;;
1414;SDS011;702;49.466;11.086;2023-07-29T07:08:33;2.90;;;2.60;;
1414;SDS011;702;49.466;11.086;2023-07-29T07:11:00;2.83;;;2.00;;
1414;SDS011;702;49.466;11.086;2023-07-29T07:13:27;2.60;;;2.40;;
1414;SDS011;702;49.466;11.086;2023-07-29T07:15:54;3.43;;;2.40;;
1414;SDS011;702;49.466;11.086;2023-07-29T07:18:23;4.40;;;2.70;;
1414;SDS011;702;49.466;11.086;2023-07-29T07:20:50;3.00;;;2.80;;
1414;SDS011;702;49.466;11.086;2023-07-29T07:23:19;4.63;;;3.20;;
1414;SDS011;702;49.466;11.086;2023-07-29T07:25:46;4.63;;;4.23;;
1414;SDS011;702;49.466;11.086;2023-07-29T07:28:13;3.57;;;3.27;;
1414;SDS011;702;49.466;11.086;2023-07-29T07:30:40;4.13;;;3.03;;
1414;SDS011;702;49.466;11.086;2023-07-29T07:33:08;4.13;;;3.50;;
1414;SDS011;702;49.466;11.086;2023-07-29T07:35:35;3.70;;;3.27;;
1414;SDS011;702;49.466;11.086;2023-07-29T07:38:03;4.90;;;2.90;;
1414;SDS011;702;49.466;11.086;2023-07-29T07:40:33;4.00;;;3.20;;
1414;SDS011;702;49.466;11.086;2023-07-29T07:43:01;2.67;;;2.47;;
1414;SDS011;702;49.466;11.086;2023-07-29T07:45:28;6.40;;;4.10;;
1414;SDS011;702;49.466;11.086;2023-07-29T07:47:55;3.07;;;2.77;;
1414;SDS011;702;49.466;11.086;2023-07-29T07:50:23;4.07;;;3.43;;
1414;SDS011;702;49.466;11.086;2023-07-29T07:52:50;3.37;;;3.07;;
1414;SDS011;702;49.466;11.086;2023-07-29T07:55:18;2.87;;;2.67;;
1414;SDS011;702;49.466;11.086;2023-07-29T07:57:46;3.77;;;2.90;;
1414;SDS011;702;49.466;11.086;2023-07-29T08:00:14;4.27;;;3.20;;
1414;SDS011;702;49.466;11.086;2023-07-29T08:02:43;3.73;;;3.43;;
1414;SDS011;702;49.466;11.086;2023-07-29T08:05:11;4.93;;;4.27;;
1414;SDS011;702;49.466;11.086;2023-07-29T08:07:38;4.13;;;3.73;;
1414;SDS011;702;49.466;11.086;2023-07-29T08:10:06;5.43;;;4.93;;
1414;SDS011;702;49.466;11.086;2023-07-29T08:12:34;4.50;;;3.90;;
1414;SDS011;702;49.466;11.086;2023-07-29T08:15:03;6.23;;;3.70;;
1414;SDS011;702;49.466;11.086;2023-07-29T08:17:31;5.80;;;5.30;;
1414;SDS011;702;49.466;11.086;2023-07-29T08:19:59;5.17;;;4.67;;
1414;SDS011;702;49.466;11.086;2023-07-29T08:22:26;4.53;;;4.13;;
1414;SDS011;702;49.466;11.086;2023-07-29T08:24:53;7.10;;;5.30;;
1414;SDS011;702;49.466;11.086;2023-07-29T08:27:21;6.00;;;4.60;;
1414;SDS011;702;49.466;11.086;2023-07-29T08:29:48;5.67;;;5.27;;
1414;SDS011;702;49.466;11.086;2023-07-29T08:32:17;5.83;;;5.23;;
1414;SDS011;702;49.466;11.086;2023-07-29T08:34:47;5.20;;;4.77;;
1414;SDS011;702;49.466;11.086;2023-07-29T08:37:14;5.80;;;5.23;;
1414;SDS011;702;49.466;11.086;2023-07-29T08:39:41;6.07;;;5.47;;
1414;SDS011;702;49.466;11.086;2023-07-29T08:42:08;8.80;;;6.13;;
1414;SDS011;702;49.466;11.086;2023-07-29T08:44:40;5.80;;;5.23;;
1414;SDS011;702;49.466;11.086;2023-07-29T08:47:09;6.57;;;5.33;;
1414;SDS011;702;49.466;11.086;2023-07-29T08:49:37;6.80;;;5.00;;
1414;SDS011;702;49.466;11.086;2023-07-29T08:52:06;5.27;;;4.70;;
1414;SDS011;702;49.466;11.086;2023-07-29T08:54:33;4.73;;;4.33;;
1414;SDS011;702;49.466;11.086;2023-07-29T08:57:01;3.60;;;3.30;;
1414;SDS011;702;49.466;11.086;2023-07-29T08:59:30;2.87;;;2.57;;
1414;SDS011;702;49.466;11.086;2023-07-29T09:01:58;2.73;;;2.53;;
1414;SDS011;702;49.466;11.086;2023-07-29T09:04:27;2.40;;;2.20;;
1414;SDS011;702;49.466;11.086;2023-07-29T09:06:56;2.23;;;1.70;;
1414;SDS011;702;49.466;11.086;2023-07-29T09:09:24;2.33;;;2.00;;
1414;SDS011;702;49.466;11.086;2023-07-29T09:11:52;1.87;;;1.77;;
1414;SDS011;702;49.466;11.086;2023-07-29T09:14:20;2.80;;;2.47;;
1414;SDS011;702;49.466;11.086;2023-07-29T09:16:48;2.57;;;2.03;;
1414;SDS011;702;49.466;11.086;2023-07-29T09:19:15;4.60;;;2.60;;
1414;SDS011;702;49.466;11.086;2023-07-29T09:21:42;3.60;;;3.10;;
1414;SDS011;702;49.466;11.086;2023-07-29T09:24:14;3.93;;;3.30;;
1414;SDS011;702;49.466;11.086;2023-07-29T09:26:48;3.63;;;3.33;;
1414;SDS011;702;49.466;11.086;2023-07-29T09:29:21;3.83;;;2.90;;
1414;SDS011;702;49.466;11.086;2023-07-29T09:31:49;5.30;;;3.47;;
1414;SDS011;702;49.466;11.086;2023-07-29T09:34:16;3.57;;;3.27;;
1414;SDS011;702;49.466;11.086;2023-07-29T09:36:44;5.53;;;3.70;;
1414;SDS011;702;49.466;11.086;2023-07-29T09:39:15;3.90;;;3.60;;
1414;SDS011;702;49.466;11.086;2023-07-29T09:41:46;6.10;;;3.40;;
1414;SDS011;702;49.466;11.086;2023-07-29T09:44:15;3.57;;;2.67;;
1414;SDS011;702;49.466;11.086;2023-07-29T09:46:45;3.17;;;2.87;;
1414;SDS011;702;49.466;11.086;2023-07-29T09:49:12;3.77;;;3.40;;
1414;SDS011;702;49.466;11.086;2023-07-29T09:51:40;4.90;;;2.80;;
1414;SDS011;702;49.466;11.086;2023-07-29T09:54:07;3.77;;;3.20;;
1414;SDS011;702;49.466;11.086;2023-07-29T09:56:39;4.20;;;3.40;;
1414;SDS011;702;49.466;11.086;2023-07-29T09:59:08;4.67;;;4.17;;
1414;SDS011;702;49.466;11.086;2023-07-29T10:01:36;5.90;;;4.20;;
1414;SDS011;702;49.466;11.086;2023-07-29T10:04:04;4.47;;;4.07;;
1414;SDS011;702;49.466;11.086;2023-07-29T10:06:32;4.53;;;4.13;;
1414;SDS011;702;49.466;11.086;2023-07-29T10:09:01;4.40;;;4.00;;
1414;SDS011;702;49.466;11.086;2023-07-29T10:11:28;4.53;;;4.13;;
1414;SDS011;702;49.466;11.086;2023-07-29T10:13:58;4.23;;;3.93;;
1414;SDS011;702;49.466;11.086;2023-07-29T10:16:27;4.57;;;4.17;;
1414;SDS011;702;49.466;11.086;2023-07-29T10:18:55;4.30;;;3.93;;
1414;SDS011;702;49.466;11.086;2023-07-29T10:21:23;4.67;;;4.27;;
1414;SDS011;702;49.466;11.086;2023-07-29T10:23:51;6.67;;;4.33;;
1414;SDS011;702;49.466;11.086;2023-07-29T10:26:22;4.30;;;3.90;;
1414;SDS011;702;49.466;11.086;2023-07-29T10:28:50;4.30;;;3.90;;
1414;SDS011;702;49.466;11.086;2023-07-29T10:31:22;3.70;;;3.40;;
1414;SDS011;702;49.466;11.086;2023-07-29T10:33:51;4.70;;;3.87;;
1414;SDS011;702;49.466;11.086;2023-07-29T10:36:20;3.90;;;3.50;;
1414;SDS011;702;49.466;11.086;2023-07-29T10:38:47;3.23;;;3.00;;
1414;SDS011;702;49.466;11.086;2023-07-29T10:41:15;4.50;;;3.40;;
1414;SDS011;702;49.466;11.086;2023-07-29T10:43:43;4.13;;;3.80;;
1414;SDS011;702;49.466;11.086;2023-07-29T10:46:16;4.67;;;3.53;;
1414;SDS011;702;49.466;11.086;2023-07-29T10:48:53;4.03;;;3.67;;
1414;SDS011;702;49.466;11.086;2023-07-29T10:51:22;4.00;;;3.40;;
1414;SDS011;702;49.466;11.086;2023-07-29T10:53:54;3.37;;;3.07;;
1414;SDS011;702;49.466;11.086;2023-07-29T10:56:24;3.63;;;3.33;;
1414;SDS011;702;49.466;11.086;2023-07-29T10:58:58;4.27;;;2.43;;
1414;SDS011;702;49.466;11.086;2023-07-29T11:01:50;2.30;;;2.10;;
1414;SDS011;702;49.466;11.086;2023-07-29T11:04:25;2.30;;;2.10;;
1414;SDS011;702;49.466;11.086;2023-07-29T11:09:56;2.17;;;1.97;;
1414;SDS011;702;49.466;11.086;2023-07-29T11:12:37;2.80;;;1.97;;
1414;SDS011;702;49.466;11.086;2023-07-29T11:15:18;2.63;;;1.83;;
1414;SDS011;702;49.466;11.086;2023-07-29T11:17:48;1.90;;;1.47;;
1414;SDS011;702;49.466;11.086;2023-07-29T11:20:20;1.73;;;1.63;;
1414;SDS011;702;49.466;11.086;2023-07-29T11:22:50;2.47;;;1.63;;
1414;SDS011;702;49.466;11.086;2023-07-29T11:25:18;1.53;;;1.43;;
1414;SDS011;702;49.466;11.086;2023-07-29T11:27:48;2.37;;;1.77;;
1414;SDS011;702;49.466;11.086;2023-07-29T11:30:17;1.87;;;1.77;;
1414;SDS011;702;49.466;11.086;2023-07-29T11:32:45;2.10;;;2.00;;
1414;SDS011;702;49.466;11.086;2023-07-29T11:35:14;1.77;;;1.53;;
1414;SDS011;702;49.466;11.086;2023-07-29T11:37:44;1.43;;;1.33;;
1414;SDS011;702;49.466;11.086;2023-07-29T11:40:14;1.70;;;1.60;;
1414;SDS011;702;49.466;11.086;2023-07-29T11:42:43;1.87;;;1.67;;
1414;SDS011;702;49.466;11.086;2023-07-29T11:45:12;1.70;;;1.60;;
1414;SDS011;702;49.466;11.086;2023-07-29T11:47:40;1.87;;;1.73;;
1414;SDS011;702;49.466;11.086;2023-07-29T11:50:08;1.70;;;1.60;;
1414;SDS011;702;49.466;11.086;2023-07-29T11:52:39;2.50;;;1.90;;
1414;SDS011;702;49.466;11.086;2023-07-29T11:55:10;2.50;;;1.70;;
1414;SDS011;702;49.466;11.086;2023-07-29T11:57:40;2.10;;;1.90;;
1414;SDS011;702;49.466;11.086;2023-07-29T12:00:09;1.80;;;1.70;;
1414;SDS011;702;49.466;11.086;2023-07-29T12:02:40;1.70;;;1.60;;
1414;SDS011;702;49.466;11.086;2023-07-29T12:05:10;1.93;;;1.60;;
1414;SDS011;702;49.466;11.086;2023-07-29T12:07:40;1.90;;;1.80;;
1414;SDS011;702;49.466;11.086;2023-07-29T12:10:11;2.13;;;1.60;;
1414;SDS011;702;49.466;11.086;2023-07-29T12:12:42;1.67;;;1.57;;
1414;SDS011;702;49.466;11.086;2023-07-29T12:15:11;2.13;;;1.93;;
1414;SDS011;702;49.466;11.086;2023-07-29T12:17:39;1.83;;;1.63;;
1414;SDS011;702;49.466;11.086;2023-07-29T12:20:08;1.90;;;1.80;;
1414;SDS011;702;49.466;11.086;2023-07-29T12:22:38;1.80;;;1.70;;
1414;SDS011;702;49.466;11.086;2023-07-29T12:25:05;1.97;;;1.87;;
1414;SDS011;702;49.466;11.086;2023-07-29T12:27:34;1.87;;;1.77;;
1414;SDS011;702;49.466;11.086;2023-07-29T12:30:02;2.40;;;2.07;;
1414;SDS011;702;49.466;11.086;2023-07-29T12:32:30;1.97;;;1.83;;
1414;SDS011;702;49.466;11.086;2023-07-29T12:34:58;1.90;;;1.67;;
1414;SDS011;702;49.466;11.086;2023-07-29T12:37:31;1.50;;;1.40;;
1414;SDS011;702;49.466;11.086;2023-07-29T12:39:58;1.37;;;1.27;;
1414;SDS011;702;49.466;11.086;2023-07-29T12:42:26;1.87;;;1.77;;
1414;SDS011;702;49.466;11.086;2023-07-29T12:44:55;1.90;;;1.60;;
1414;SDS011;702;49.466;11.086;2023-07-29T12:47:22;2.33;;;2.13;;
1414;SDS011;702;49.466;11.086;2023-07-29T12:49:49;2.50;;;1.57;;
1414;SDS011;702;49.466;11.086;2023-07-29T12:52:16;2.17;;;1.77;;
1414;SDS011;702;49.466;11.086;2023-07-29T12:54:44;2.20;;;1.70;;
1414;SDS011;702;49.466;11.086;2023-07-29T12:57:11;2.57;;;1.50;;
1414;SDS011;702;49.466;11.086;2023-07-29T12:59:38;2.27;;;1.70;;
1414;SDS011;702;49.466;11.086;2023-07-29T13:02:07;1.50;;;1.40;;
1414;SDS011;702;49.466;11.086;2023-07-29T13:04:34;2.20;;;2.00;;
1414;SDS011;702;49.466;11.086;2023-07-29T13:07:02;1.60;;;1.50;;
1414;SDS011;702;49.466;11.086;2023-07-29T13:09:30;2.20;;;2.00;;
1414;SDS011;702;49.466;11.086;2023-07-29T13:11:57;1.67;;;1.57;;
1414;SDS011;702;49.466;11.086;2023-07-29T13:14:25;1.70;;;1.60;;
1414;SDS011;702;49.466;11.086;2023-07-29T13:16:52;1.70;;;1.60;;
1414;SDS011;702;49.466;11.086;2023-07-29T13:19:20;1.87;;;1.77;;
1414;SDS011;702;49.466;11.086;2023-07-29T13:21:48;1.83;;;1.50;;
1414;SDS011;702;49.466;11.086;2023-07-29T13:24:15;1.93;;;1.80;;
1414;SDS011;702;49.466;11.086;2023-07-29T13:26:43;2.37;;;1.70;;
1414;SDS011;702;49.466;11.086;2023-07-29T13:29:10;1.43;;;1.33;;
1414;SDS011;702;49.466;11.086;2023-07-29T13:31:37;3.07;;;1.40;;
1414;SDS011;702;49.466;11.086;2023-07-29T13:34:04;2.23;;;1.53;;
1414;SDS011;702;49.466;11.086;2023-07-29T13:36:33;1.40;;;1.30;;
1414;SDS011;702;49.466;11.086;2023-07-29T13:39:00;1.63;;;1.47;;
1414;SDS011;702;49.466;11.086;2023-07-29T13:41:27;1.90;;;1.43;;
1414;SDS011;702;49.466;11.086;2023-07-29T13:43:54;1.40;;;1.30;;
1414;SDS011;702;49.466;11.086;2023-07-29T13:46:21;1.93;;;1.83;;
1414;SDS011;702;49.466;11.086;2023-07-29T13:48:48;1.67;;;1.47;;
1414;SDS011;702;49.466;11.086;2023-07-29T13:51:15;1.80;;;1.67;;
1414;SDS011;702;49.466;11.086;2023-07-29T13:53:44;17.33;;;2.47;;
1414;SDS011;702;49.466;11.086;2023-07-29T13:56:11;1.70;;;1.60;;
1414;SDS011;702;49.466;11.086;2023-07-29T13:58:39;1.23;;;1.10;;
1414;SDS011;702;49.466;11.086;2023-07-29T14:01:06;1.60;;;1.30;;
1414;SDS011;702;49.466;11.086;2023-07-29T14:03:33;1.57;;;1.47;;
1414;SDS011;702;49.466;11.086;2023-07-29T14:06:01;2.00;;;1.63;;
1414;SDS011;702;49.466;11.086;2023-07-29T14:08:30;1.17;;;1.07;;
1414;SDS011;702;49.466;11.086;2023-07-29T14:10:58;1.60;;;1.43;;
1414;SDS011;702;49.466;11.086;2023-07-29T14:13:26;1.47;;;1.33;;
1414;SDS011;702;49.466;11.086;2023-07-29T14:15:53;1.63;;;1.53;;
1414;SDS011;702;49.466;11.086;2023-07-29T14:18:20;1.37;;;1.27;;
1414;SDS011;702;49.466;11.086;2023-07-29T14:20:47;1.50;;;1.40;;
1414;SDS011;702;49.466;11.086;2023-07-29T14:23:17;1.57;;;1.00;;
1414;SDS011;702;49.466;11.086;2023-07-29T14:25:44;1.13;;;1.00;;
1414;SDS011;702;49.466;11.086;2023-07-29T14:28:13;1.30;;;1.20;;
1414;SDS011;702;49.466;11.086;2023-07-29T14:30:41;1.20;;;1.10;;
1414;SDS011;702;49.466;11.086;2023-07-29T14:33:08;0.97;;;0.90;;
1414;SDS011;702;49.466;11.086;2023-07-29T14:35:36;1.30;;;1.20;;
1414;SDS011;702;49.466;11.086;2023-07-29T14:38:03;1.47;;;1.37;;
1414;SDS011;702;49.466;11.086;2023-07-29T14:40:30;1.33;;;0.83;;
1414;SDS011;702;49.466;11.086;2023-07-29T14:42:57;1.30;;;1.03;;
1414;SDS011;702;49.466;11.086;2023-07-29T14:45:26;1.40;;;1.30;;
1414;SDS011;702;49.466;11.086;2023-07-29T14:47:53;1.30;;;1.20;;
1414;SDS011;702;49.466;11.086;2023-07-29T14:50:20;1.07;;;0.90;;
1414;SDS011;702;49.466;11.086;2023-07-29T14:52:47;1.30;;;1.13;;
1414;SDS011;702;49.466;11.086;2023-07-29T14:55:15;1.20;;;1.10;;
1414;SDS011;702;49.466;11.086;2023-07-29T14:57:43;1.40;;;1.20;;
1414;SDS011;702;49.466;11.086;2023-07-29T15:00:10;0.80;;;0.80;;
1414;SDS011;702;49.466;11.086;2023-07-29T15:02:41;1.10;;;1.00;;
1414;SDS011;702;49.466;11.086;2023-07-29T15:05:09;1.10;;;1.00;;
1414;SDS011;702;49.466;11.086;2023-07-29T15:07:36;1.20;;;1.10;;
1414;SDS011;702;49.466;11.086;2023-07-29T15:10:04;1.00;;;1.00;;
1414;SDS011;702;49.466;11.086;2023-07-29T15:12:32;1.57;;;1.47;;
1414;SDS011;702;49.466;11.086;2023-07-29T15:15:00;1.27;;;1.17;;
1414;SDS011;702;49.466;11.086;2023-07-29T15:17:27;1.40;;;1.30;;
1414;SDS011;702;49.466;11.086;2023-07-29T15:19:55;2.07;;;1.37;;
1414;SDS011;702;49.466;11.086;2023-07-29T15:22:23;1.80;;;1.70;;
1414;SDS011;702;49.466;11.086;2023-07-29T15:24:50;1.60;;;1.30;;